createdAt,value
2022-09-26T00:00:10.429Z,5.7
2022-09-26T00:01:18.919Z,5.7
2022-09-26T00:02:27.496Z,5.9
2022-09-26T00:03:35.848Z,5.9
2022-09-26T00:04:44.230Z,5.9
2022-09-26T00:05:52.823Z,6.2
2022-09-26T00:07:01.231Z,6.2
2022-09-26T00:08:09.731Z,6.2
2022-09-26T00:09:18.256Z,6.5
2022-09-26T00:10:26.642Z,6.5
2022-09-26T00:11:35.054Z,6.5
2022-09-26T00:12:43.704Z,6.4
2022-09-26T00:13:52.121Z,6.4
2022-09-26T00:15:00.499Z,6.4
2022-09-26T00:16:09.116Z,7.2
2022-09-26T00:17:17.519Z,7.2
2022-09-26T00:18:25.964Z,7.2
2022-09-26T00:19:34.597Z,6.8
2022-09-26T00:20:42.977Z,6.8
2022-09-26T00:21:51.422Z,6.8
2022-09-26T00:23:00.036Z,6.9
2022-09-26T00:24:08.441Z,6.9
2022-09-26T00:25:16.810Z,6.9
2022-09-26T00:26:25.425Z,8.4
2022-09-26T00:27:33.837Z,8.4
2022-09-26T00:28:42.216Z,8.4
2022-09-26T00:29:50.824Z,7.9
2022-09-26T00:30:59.286Z,7.9
2022-09-26T00:32:07.609Z,7.9
2022-09-26T00:33:16.198Z,8.7
2022-09-26T00:34:24.583Z,8.7
2022-09-26T00:35:33.011Z,8.7
2022-09-26T00:36:41.716Z,8.2
2022-09-26T00:37:50.088Z,8.2
2022-09-26T00:38:58.466Z,8.2
2022-09-26T00:40:07.103Z,7.9
2022-09-26T00:41:15.496Z,7.9
2022-09-26T00:42:23.883Z,7.9
2022-09-26T00:43:32.477Z,7.9
2022-09-26T00:44:40.879Z,7.9
2022-09-26T00:45:49.359Z,7.9
2022-09-26T00:46:57.943Z,7.5
2022-09-26T00:48:06.420Z,7.5
2022-09-26T00:49:14.856Z,7.5
2022-09-26T00:50:23.431Z,7.7
2022-09-26T00:51:31.802Z,7.7
2022-09-26T00:52:40.225Z,7.7
2022-09-26T00:53:48.802Z,7.7
2022-09-26T00:54:57.205Z,7.7
2022-09-26T00:56:05.760Z,7.7
2022-09-26T00:57:14.234Z,9.3
2022-09-26T00:58:22.650Z,9.3
2022-09-26T00:59:31.073Z,9.3
2022-09-26T01:00:42.202Z,9.3
2022-09-26T01:01:48.140Z,9.3
2022-09-26T01:02:56.481Z,9.3
2022-09-26T01:04:05.071Z,8.5
2022-09-26T01:05:13.506Z,8.5
2022-09-26T01:06:21.895Z,8.5
2022-09-26T01:07:30.497Z,8.9
2022-09-26T01:08:38.913Z,8.9
2022-09-26T01:09:47.310Z,8.9
2022-09-26T01:10:55.913Z,9
2022-09-26T01:12:04.321Z,9
2022-09-26T01:13:12.705Z,9
2022-09-26T01:14:21.346Z,8
2022-09-26T01:15:29.722Z,8
2022-09-26T01:16:38.227Z,8
2022-09-26T01:17:46.705Z,8.6
2022-09-26T01:18:55.102Z,8.6
2022-09-26T01:20:03.494Z,8.6
2022-09-26T01:21:12.104Z,9.1
2022-09-26T01:22:20.512Z,9.1
2022-09-26T01:23:28.884Z,9.1
2022-09-26T01:24:37.498Z,8.4
2022-09-26T01:25:45.901Z,8.4
2022-09-26T01:26:54.291Z,8.4
2022-09-26T01:28:02.933Z,7.9
2022-09-26T01:29:11.301Z,7.9
2022-09-26T01:30:19.718Z,7.9
2022-09-26T01:31:28.308Z,8.2
2022-09-26T01:32:36.725Z,8.2
2022-09-26T01:33:45.146Z,8.2
2022-09-26T01:34:53.780Z,8.3
2022-09-26T01:36:02.227Z,8.3
2022-09-26T01:37:10.653Z,8.3
2022-09-26T01:38:19.291Z,9.1
2022-09-26T01:39:27.678Z,9.1
2022-09-26T01:40:36.162Z,9.1
2022-09-26T01:41:44.700Z,8.3
2022-09-26T01:42:53.075Z,8.3
2022-09-26T01:44:01.528Z,8.3
2022-09-26T01:45:10.111Z,9.1
2022-09-26T01:46:18.600Z,9.1
2022-09-26T01:47:26.943Z,9.1
2022-09-26T01:48:35.544Z,8.6
2022-09-26T01:49:43.951Z,8.6
2022-09-26T01:50:52.377Z,8.6
2022-09-26T01:52:00.952Z,8
2022-09-26T01:53:09.350Z,8
2022-09-26T01:54:17.776Z,8
2022-09-26T01:55:26.353Z,7.7
2022-09-26T01:56:34.754Z,7.7
2022-09-26T01:57:43.166Z,7.7
2022-09-26T01:58:51.792Z,8
2022-09-26T02:00:00.322Z,8
2022-09-26T02:01:08.744Z,8
2022-09-26T02:02:17.434Z,7.5
2022-09-26T02:03:25.773Z,7.5
2022-09-26T02:04:34.156Z,7.5
2022-09-26T02:05:42.762Z,7.1
2022-09-26T02:06:51.189Z,7.1
2022-09-26T02:07:59.571Z,7.1
2022-09-26T02:09:08.296Z,7.6
2022-09-26T02:10:16.583Z,7.6
2022-09-26T02:11:24.987Z,7.6
2022-09-26T02:12:33.705Z,7.5
2022-09-26T02:13:42.068Z,7.5
2022-09-26T02:14:50.454Z,7.5
2022-09-26T02:15:59.140Z,7.5
2022-09-26T02:17:07.525Z,7.5
2022-09-26T02:18:15.926Z,7.5
2022-09-26T02:19:24.533Z,7.8
2022-09-26T02:20:32.970Z,7.8
2022-09-26T02:21:41.395Z,7.8
2022-09-26T02:22:49.980Z,7.5
2022-09-26T02:23:58.395Z,7.5
2022-09-26T02:25:06.803Z,7.5
2022-09-26T02:26:15.398Z,7.3
2022-09-26T02:27:23.795Z,7.3
2022-09-26T02:28:32.184Z,7.3
2022-09-26T02:29:40.784Z,7.5
2022-09-26T02:30:49.198Z,7.5
2022-09-26T02:31:57.661Z,7.5
2022-09-26T02:33:06.204Z,7.1
2022-09-26T02:34:14.611Z,7.1
2022-09-26T02:35:22.993Z,7.1
2022-09-26T02:36:31.619Z,7
2022-09-26T02:37:40.011Z,7
2022-09-26T02:38:48.421Z,7
2022-09-26T02:39:57.009Z,6.8
2022-09-26T02:41:05.398Z,6.8
2022-09-26T02:42:13.780Z,6.8
2022-09-26T02:43:22.416Z,6.8
2022-09-26T02:44:30.798Z,6.8
2022-09-26T02:45:39.308Z,6.8
2022-09-26T02:46:47.867Z,6.7
2022-09-26T02:47:56.326Z,6.7
2022-09-26T02:49:04.712Z,6.7
2022-09-26T02:50:13.308Z,6.5
2022-09-26T02:51:21.721Z,6.5
2022-09-26T02:52:30.118Z,6.5
2022-09-26T02:53:38.743Z,6.1
2022-09-26T02:54:47.236Z,6.1
2022-09-26T02:55:55.620Z,6.1
2022-09-26T02:57:04.239Z,6.5
2022-09-26T02:58:12.644Z,6.5
2022-09-26T02:59:21.008Z,6.5
2022-09-26T03:00:29.616Z,5.5
2022-09-26T03:01:38.087Z,5.5
2022-09-26T03:02:46.390Z,5.5
2022-09-26T03:03:55.132Z,5.9
2022-09-26T03:05:03.490Z,5.9
2022-09-26T03:06:11.816Z,5.9
2022-09-26T03:07:20.411Z,5.3
2022-09-26T03:08:28.830Z,5.3
2022-09-26T03:09:37.303Z,5.3
2022-09-26T03:10:45.892Z,5.9
2022-09-26T03:11:54.272Z,5.9
2022-09-26T03:13:02.705Z,5.9
2022-09-26T03:14:11.298Z,5.7
2022-09-26T03:15:19.690Z,5.7
2022-09-26T03:16:28.110Z,5.7
2022-09-26T03:17:36.692Z,5.8
2022-09-26T03:18:45.086Z,5.8
2022-09-26T03:19:53.609Z,5.8
2022-09-26T03:21:02.092Z,5.3
2022-09-26T03:22:10.491Z,5.3
2022-09-26T03:23:18.961Z,5.3
2022-09-26T03:24:27.576Z,5.6
2022-09-26T03:25:35.961Z,5.6
2022-09-26T03:26:44.343Z,5.6
2022-09-26T03:27:52.971Z,5.4
2022-09-26T03:29:01.362Z,5.4
2022-09-26T03:30:09.773Z,5.4
2022-09-26T03:31:18.355Z,5.6
2022-09-26T03:32:26.755Z,5.6
2022-09-26T03:33:35.159Z,5.6
2022-09-26T03:34:43.753Z,6.1
2022-09-26T03:35:52.309Z,6.1
2022-09-26T03:37:00.686Z,6.1
2022-09-26T03:38:13.672Z,5.6
2022-09-26T03:39:17.697Z,5.6
2022-09-26T03:40:26.119Z,5.6
2022-09-26T03:41:34.688Z,5.5
2022-09-26T03:42:43.131Z,5.5
2022-09-26T03:43:51.484Z,5.5
2022-09-26T03:45:00.107Z,5.5
2022-09-26T03:46:08.583Z,5.5
2022-09-26T03:47:16.884Z,5.5
2022-09-26T03:48:25.512Z,5.8
2022-09-26T03:49:33.890Z,5.8
2022-09-26T03:50:42.275Z,5.8
2022-09-26T03:51:50.924Z,5.4
2022-09-26T03:52:59.301Z,5.4
2022-09-26T03:54:07.712Z,5.4
2022-09-26T03:55:16.298Z,5.7
2022-09-26T03:56:24.685Z,5.7
2022-09-26T03:57:33.127Z,5.7
2022-09-26T03:58:41.734Z,5.8
2022-09-26T03:59:50.118Z,5.8
2022-09-26T04:00:58.616Z,5.8
2022-09-26T04:02:07.165Z,5.9
2022-09-26T04:03:15.598Z,5.9
2022-09-26T04:04:23.994Z,5.9
2022-09-26T04:05:32.595Z,5.7
2022-09-26T04:06:41.072Z,5.7
2022-09-26T04:07:49.508Z,5.7
2022-09-26T04:08:58.082Z,5.6
2022-09-26T04:10:06.512Z,5.6
2022-09-26T04:11:14.875Z,5.6
2022-09-26T04:12:23.509Z,5.5
2022-09-26T04:13:50.430Z,5.5
2022-09-26T04:14:40.314Z,5.5
2022-09-26T04:15:48.940Z,5.7
2022-09-26T04:16:57.322Z,5.7
2022-09-26T04:18:05.753Z,5.7
2022-09-26T04:19:14.453Z,5.7
2022-09-26T04:20:22.706Z,5.7
2022-09-26T04:21:31.131Z,5.7
2022-09-26T04:22:39.741Z,5.8
2022-09-26T04:23:48.192Z,5.8
2022-09-26T04:24:56.594Z,5.8
2022-09-26T04:26:05.178Z,5.5
2022-09-26T04:27:13.576Z,5.5
2022-09-26T04:28:22.048Z,5.5
2022-09-26T04:29:30.620Z,5.6
2022-09-26T04:30:39.005Z,5.6
2022-09-26T04:31:47.547Z,5.6
2022-09-26T04:32:56.055Z,5.9
2022-09-26T04:34:04.473Z,5.9
2022-09-26T04:35:12.849Z,5.9
2022-09-26T04:36:21.455Z,6.7
2022-09-26T04:37:29.860Z,6.7
2022-09-26T04:38:38.313Z,6.7
2022-09-26T04:39:46.954Z,6.3
2022-09-26T04:40:55.377Z,6.3
2022-09-26T04:42:03.752Z,6.3
2022-09-26T04:43:12.350Z,6.8
2022-09-26T04:44:20.753Z,6.8
2022-09-26T04:45:29.177Z,6.8
2022-09-26T04:46:37.783Z,6.5
2022-09-26T04:47:46.148Z,6.5
2022-09-26T04:48:54.541Z,6.5
2022-09-26T04:50:03.145Z,6.5
2022-09-26T04:51:11.558Z,6.5
2022-09-26T04:52:19.970Z,6.5
2022-09-26T04:53:28.589Z,7.1
2022-09-26T04:54:36.967Z,7.1
2022-09-26T04:55:45.473Z,7.1
2022-09-26T04:56:54.018Z,7
2022-09-26T04:58:02.398Z,7
2022-09-26T04:59:10.860Z,7
2022-09-26T05:00:19.485Z,7.4
2022-09-26T05:01:27.984Z,7.4
2022-09-26T05:02:36.324Z,7.4
2022-09-26T05:03:44.909Z,7.6
2022-09-26T05:04:53.316Z,7.6
2022-09-26T05:06:01.811Z,7.6
2022-09-26T05:07:10.446Z,7.3
2022-09-26T05:08:18.855Z,7.3
2022-09-26T05:09:27.264Z,7.3
2022-09-26T05:10:35.902Z,6.8
2022-09-26T05:11:44.346Z,6.8
2022-09-26T05:12:52.723Z,6.8
2022-09-26T05:14:01.320Z,6.9
2022-09-26T05:15:09.736Z,6.9
2022-09-26T05:16:18.178Z,6.9
2022-09-26T05:17:26.742Z,6.3
2022-09-26T05:18:35.171Z,6.3
2022-09-26T05:19:43.565Z,6.3
2022-09-26T05:20:52.208Z,5.8
2022-09-26T05:22:00.676Z,5.8
2022-09-26T05:23:09.071Z,5.8
2022-09-26T05:24:17.701Z,6.1
2022-09-26T05:25:26.093Z,6.1
2022-09-26T05:26:34.537Z,6.1
2022-09-26T05:27:43.215Z,6.1
2022-09-26T05:28:51.547Z,6.1
2022-09-26T05:29:59.989Z,6.1
2022-09-26T05:31:08.647Z,6.7
2022-09-26T05:32:17.009Z,6.7
2022-09-26T05:33:25.399Z,6.7
2022-09-26T05:34:34.003Z,6.7
2022-09-26T05:35:42.416Z,6.7
2022-09-26T05:36:50.822Z,6.7
2022-09-26T05:37:59.447Z,7.4
2022-09-26T05:39:07.850Z,7.4
2022-09-26T05:40:16.295Z,7.4
2022-09-26T05:41:24.886Z,6.3
2022-09-26T05:42:33.283Z,6.3
2022-09-26T05:43:41.837Z,6.3
2022-09-26T05:44:50.324Z,9.7
2022-09-26T05:45:58.754Z,9.7
2022-09-26T05:47:07.317Z,9.7
2022-09-26T05:48:15.779Z,5.4
2022-09-26T05:49:24.187Z,5.4
2022-09-26T05:50:32.588Z,5.4
2022-09-26T05:51:41.208Z,6
2022-09-26T05:52:49.627Z,6
2022-09-26T05:53:58.039Z,6
2022-09-26T05:55:06.643Z,5.8
2022-09-26T05:56:18.692Z,5.8
2022-09-26T05:57:23.463Z,5.8
2022-09-26T05:58:32.089Z,5.1
2022-09-26T05:59:40.511Z,5.1
2022-09-26T06:00:48.953Z,5.1
2022-09-26T06:01:57.586Z,6
2022-09-26T06:03:05.953Z,6
2022-09-26T06:04:14.358Z,6
2022-09-26T06:05:22.961Z,4.6
2022-09-26T06:06:31.376Z,4.6
2022-09-26T06:07:39.789Z,4.6
2022-09-26T06:08:48.377Z,4.2
2022-09-26T06:09:56.805Z,4.2
2022-09-26T06:11:05.215Z,4.2
2022-09-26T06:12:13.836Z,4.1
2022-09-26T06:13:22.292Z,4.1
2022-09-26T06:14:30.688Z,4.1
2022-09-26T06:15:39.366Z,4
2022-09-26T06:16:47.815Z,4
2022-09-26T06:17:56.156Z,4
2022-09-26T06:19:04.741Z,5.4
2022-09-26T06:20:13.155Z,5.4
2022-09-26T06:21:21.539Z,5.4
2022-09-26T06:22:30.134Z,3.7
2022-09-26T06:23:38.545Z,3.7
2022-09-26T06:24:46.925Z,3.7
2022-09-26T06:25:55.544Z,4.2
2022-09-26T06:27:03.953Z,4.2
2022-09-26T06:28:12.367Z,4.2
2022-09-26T06:29:20.986Z,3.9
2022-09-26T06:30:29.389Z,3.9
2022-09-26T06:31:37.965Z,3.9
2022-09-26T06:32:46.386Z,4.5
2022-09-26T06:33:54.800Z,4.5
2022-09-26T06:35:03.195Z,4.5
2022-09-26T06:36:11.848Z,5.3
2022-09-26T06:37:20.218Z,5.3
2022-09-26T06:38:28.625Z,5.3
2022-09-26T06:39:37.223Z,5.3
2022-09-26T06:40:45.668Z,5.3
2022-09-26T06:41:54.045Z,5.3
2022-09-26T06:43:02.680Z,4.9
2022-09-26T06:44:11.038Z,4.9
2022-09-26T06:45:19.489Z,4.9
2022-09-26T06:46:28.143Z,5
2022-09-26T06:47:36.548Z,5
2022-09-26T06:48:44.961Z,5
2022-09-26T06:49:53.551Z,5.5
2022-09-26T06:51:01.984Z,5.5
2022-09-26T06:52:10.394Z,5.5
2022-09-26T06:53:18.998Z,5
2022-09-26T06:54:27.397Z,5
2022-09-26T06:55:35.818Z,5
2022-09-26T06:56:44.441Z,5.3
2022-09-26T06:57:52.848Z,5.3
2022-09-26T06:59:01.251Z,5.3
2022-09-26T07:00:09.871Z,5.3
2022-09-26T07:01:18.418Z,5.3
2022-09-26T07:02:26.814Z,5.3
2022-09-26T07:03:35.317Z,5.5
2022-09-26T07:04:44.251Z,5.5
2022-09-26T07:05:52.647Z,5.5
2022-09-26T07:07:01.250Z,5.1
2022-09-26T07:08:09.662Z,5.1
2022-09-26T07:09:18.503Z,5.1
2022-09-26T07:10:26.678Z,5.1
2022-09-26T07:11:50.830Z,5.1
2022-09-26T07:12:43.480Z,5.1
2022-09-26T07:13:52.084Z,5.7
2022-09-26T07:15:00.498Z,5.7
2022-09-26T07:16:08.951Z,5.7
2022-09-26T07:17:17.525Z,4.9
2022-09-26T07:18:25.939Z,4.9
2022-09-26T07:19:34.448Z,4.9
2022-09-26T07:20:42.961Z,5.9
2022-09-26T07:21:51.360Z,5.9
2022-09-26T07:22:59.775Z,5.9
2022-09-26T07:24:08.386Z,5.7
2022-09-26T07:25:16.777Z,5.7
2022-09-26T07:26:25.207Z,5.7
2022-09-26T07:27:33.818Z,5.8
2022-09-26T07:28:42.214Z,5.8
2022-09-26T07:29:50.634Z,5.8
2022-09-26T07:30:59.283Z,5.5
2022-09-26T07:32:07.673Z,5.5
2022-09-26T07:33:16.100Z,5.5
2022-09-26T07:34:24.747Z,5.8
2022-09-26T07:35:33.227Z,5.8
2022-09-26T07:36:41.602Z,5.8
2022-09-26T07:37:50.194Z,5.4
2022-09-26T07:38:58.624Z,5.4
2022-09-26T07:40:07.017Z,5.4
2022-09-26T07:41:15.654Z,5.9
2022-09-26T07:42:24.078Z,5.9
2022-09-26T07:44:19.138Z,5.9
2022-09-26T07:45:49.496Z,5.1
2022-09-26T07:46:58.001Z,5.1
2022-09-26T07:48:06.559Z,5.6
2022-09-26T07:49:14.980Z,5.6
2022-09-26T07:50:23.419Z,5.6
2022-09-26T07:51:32.027Z,5.2
2022-09-26T07:52:40.450Z,5.2
2022-09-26T07:53:48.833Z,5.2
2022-09-26T07:54:57.434Z,5.3
2022-09-26T07:56:05.886Z,5.3
2022-09-26T07:57:14.261Z,5.3
2022-09-26T07:58:22.890Z,4.2
2022-09-26T07:59:31.274Z,4.2
2022-09-26T08:00:39.681Z,4.2
2022-09-26T08:01:48.349Z,4.2
2022-09-26T08:02:56.746Z,4.2
2022-09-26T08:04:05.145Z,4.2
2022-09-26T08:05:13.750Z,4.3
2022-09-26T08:06:22.175Z,4.3
2022-09-26T08:07:30.554Z,4.3
2022-09-26T08:08:39.201Z,4.3
2022-09-26T08:09:47.628Z,4.3
2022-09-26T08:10:59.053Z,4.3
2022-09-26T08:12:04.637Z,4.3
2022-09-26T08:13:13.074Z,4.3
2022-09-26T08:14:21.497Z,4.3
2022-09-26T08:15:30.078Z,4.9
2022-09-26T08:16:38.562Z,4.9
2022-09-26T08:17:46.925Z,4.9
2022-09-26T08:18:55.585Z,4.6
2022-09-26T08:20:03.994Z,4.6
2022-09-26T08:21:12.402Z,4.6
2022-09-26T08:22:21.029Z,4.4
2022-09-26T08:23:29.441Z,4.4
2022-09-26T08:24:37.850Z,4.4
2022-09-26T08:25:46.447Z,4.3
2022-09-26T08:26:54.849Z,4.3
2022-09-26T08:28:03.277Z,4.3
2022-09-26T08:29:11.870Z,4.2
2022-09-26T08:30:20.306Z,4.2
2022-09-26T08:31:28.755Z,4.2
2022-09-26T08:32:37.282Z,4.2
2022-09-26T08:33:45.658Z,4.2
2022-09-26T08:34:54.070Z,4.2
2022-09-26T08:36:02.675Z,4
2022-09-26T08:37:11.085Z,4
2022-09-26T08:38:19.522Z,4
2022-09-26T08:39:32.586Z,3.6
2022-09-26T08:40:36.583Z,3.6
2022-09-26T08:41:44.951Z,3.6
2022-09-26T08:42:53.559Z,3.6
2022-09-26T08:44:01.964Z,3.6
2022-09-26T08:45:10.393Z,3.6
2022-09-26T08:46:19.022Z,3.7
2022-09-26T08:47:27.409Z,3.7
2022-09-26T08:48:35.843Z,3.7
2022-09-26T08:49:44.450Z,3.4
2022-09-26T08:50:52.845Z,3.4
2022-09-26T08:52:01.255Z,3.4
2022-09-26T08:53:09.857Z,3.6
2022-09-26T08:54:18.271Z,3.6
2022-09-26T08:55:26.723Z,3.6
2022-09-26T08:56:35.273Z,3.8
2022-09-26T08:57:43.897Z,3.8
2022-09-26T08:58:52.375Z,3.8
2022-09-26T09:00:00.940Z,4.1
2022-09-26T09:01:09.390Z,4.1
2022-09-26T09:02:17.922Z,4.1
2022-09-26T09:03:26.461Z,4.1
2022-09-26T09:04:34.858Z,4.1
2022-09-26T09:05:43.271Z,4.1
2022-09-26T09:06:51.879Z,4
2022-09-26T09:08:00.317Z,4
2022-09-26T09:09:08.701Z,4
2022-09-26T09:10:17.312Z,4.1
2022-09-26T09:11:25.712Z,4.1
2022-09-26T09:12:34.158Z,4.1
2022-09-26T09:13:42.748Z,4.3
2022-09-26T09:15:02.547Z,4.3
2022-09-26T09:15:59.626Z,4.3
2022-09-26T09:17:08.189Z,4.1
2022-09-26T09:18:16.638Z,4.1
2022-09-26T09:19:25.042Z,4.1
2022-09-26T09:20:33.632Z,4.4
2022-09-26T09:21:42.304Z,4.4
2022-09-26T09:22:50.476Z,4.4
2022-09-26T09:23:59.098Z,4.6
2022-09-26T09:25:07.491Z,4.6
2022-09-26T09:28:32.915Z,3.9
2022-09-26T09:29:41.366Z,3.9
2022-09-26T09:30:49.921Z,4.1
2022-09-26T09:31:58.318Z,4.1
2022-09-26T09:33:06.756Z,4.1
2022-09-26T09:34:15.507Z,4.6
2022-09-26T09:35:23.766Z,4.6
2022-09-26T09:36:32.146Z,4.6
2022-09-26T09:37:40.791Z,4.2
2022-09-26T09:38:49.179Z,4.2
2022-09-26T09:39:57.570Z,4.2
2022-09-26T09:41:06.301Z,4.6
2022-09-26T09:42:14.619Z,4.6
2022-09-26T09:43:23.050Z,4.6
2022-09-26T09:44:31.617Z,4.9
2022-09-26T09:45:40.017Z,4.9
2022-09-26T09:46:48.453Z,4.9
2022-09-26T09:47:57.039Z,4.5
2022-09-26T09:49:05.443Z,4.5
2022-09-26T09:50:13.904Z,4.5
2022-09-26T09:51:22.445Z,5.4
2022-09-26T09:52:30.862Z,5.4
2022-09-26T09:53:39.267Z,5.4
2022-09-26T09:54:47.868Z,4.4
2022-09-26T09:55:56.278Z,4.4
2022-09-26T09:57:04.698Z,4.4
2022-09-26T09:58:13.349Z,4.3
2022-09-26T09:59:21.764Z,4.3
2022-09-26T10:00:30.143Z,4.3
2022-09-26T10:01:38.764Z,4.1
2022-09-26T10:02:47.225Z,4.1
2022-09-26T10:03:55.467Z,4.1
2022-09-26T10:05:04.024Z,3.8
2022-09-26T10:06:45.040Z,3.8
2022-09-26T10:07:20.813Z,3.8
2022-09-26T10:08:29.408Z,3.9
2022-09-26T10:09:40.232Z,3.9
2022-09-26T10:10:46.247Z,3.9
2022-09-26T10:11:54.975Z,4.2
2022-09-26T10:13:03.408Z,4.2
2022-09-26T10:14:11.880Z,4.2
2022-09-26T10:15:20.460Z,4.1
2022-09-26T10:16:28.892Z,4.1
2022-09-26T10:17:37.244Z,4.1
2022-09-26T10:18:45.847Z,4.5
2022-09-26T10:19:54.306Z,4.5
2022-09-26T10:21:02.671Z,4.5
2022-09-26T10:22:11.276Z,3.8
2022-09-26T10:23:19.718Z,3.8
2022-09-26T10:24:28.100Z,3.8
2022-09-26T10:25:36.741Z,3.9
2022-09-26T10:26:45.151Z,3.9
2022-09-26T10:27:53.563Z,3.9
2022-09-26T10:29:02.213Z,4.6
2022-09-26T10:30:10.595Z,4.6
2022-09-26T10:31:19.072Z,4.6
2022-09-26T10:32:27.628Z,3.7
2022-09-26T10:33:36.045Z,3.7
2022-09-26T10:34:44.473Z,3.7
2022-09-26T10:35:53.074Z,3.2
2022-09-26T10:37:01.749Z,3.2
2022-09-26T10:38:10.187Z,3.2
2022-09-26T10:39:18.783Z,2.9
2022-09-26T10:40:27.231Z,2.9
2022-09-26T10:41:35.621Z,2.9
2022-09-26T10:42:44.217Z,3
2022-09-26T10:43:52.611Z,3
2022-09-26T10:45:01.021Z,3
2022-09-26T10:46:09.648Z,2.5
2022-09-26T10:47:18.068Z,2.5
2022-09-26T10:48:26.464Z,2.5
2022-09-26T10:49:35.028Z,3
2022-09-26T10:50:43.454Z,3
2022-09-26T10:51:51.893Z,3
2022-09-26T10:53:00.506Z,2.8
2022-09-26T10:54:09.037Z,2.8
2022-09-26T10:55:17.350Z,2.8
2022-09-26T10:56:25.963Z,2.7
2022-09-26T10:57:34.376Z,2.7
2022-09-26T10:58:42.807Z,2.7
2022-09-26T10:59:51.854Z,2.1
2022-09-26T11:01:01.704Z,2.1
2022-09-26T11:02:10.505Z,2.1
2022-09-26T11:03:19.340Z,2.1
2022-09-26T11:04:27.689Z,2.1
2022-09-26T11:05:36.080Z,2.1
2022-09-26T11:06:44.720Z,1.9
2022-09-26T11:07:53.103Z,1.9
2022-09-26T11:09:01.528Z,1.9
2022-09-26T11:10:10.189Z,2.1
2022-09-26T11:11:18.517Z,2.1
2022-09-26T11:12:26.948Z,2.1
2022-09-26T11:13:35.570Z,1.9
2022-09-26T11:14:43.965Z,1.9
2022-09-26T11:15:52.462Z,1.9
2022-09-26T11:17:01.045Z,1.8
2022-09-26T11:18:09.434Z,1.8
2022-09-26T11:19:17.843Z,1.8
2022-09-26T11:20:26.412Z,1.8
2022-09-26T11:21:34.892Z,1.8
2022-09-26T11:22:43.281Z,1.8
2022-09-26T11:23:51.905Z,2.1
2022-09-26T11:25:00.309Z,2.1
2022-09-26T11:26:08.732Z,2.1
2022-09-26T11:27:17.332Z,2.1
2022-09-26T11:28:25.830Z,2.1
2022-09-26T11:29:34.220Z,2.1
2022-09-26T11:30:42.874Z,1.9
2022-09-26T11:31:51.264Z,1.9
2022-09-26T11:32:59.711Z,1.9
2022-09-26T11:34:08.328Z,2.1
2022-09-26T11:35:16.806Z,2.1
2022-09-26T11:36:25.207Z,2.1
2022-09-26T11:37:33.830Z,2.1
2022-09-26T11:38:42.226Z,2.1
2022-09-26T11:39:50.601Z,2.1
2022-09-26T11:40:59.285Z,2
2022-09-26T11:42:07.714Z,2
2022-09-26T11:43:16.061Z,2
2022-09-26T11:44:24.730Z,2.3
2022-09-26T11:45:37.840Z,2.3
2022-09-26T11:46:41.619Z,2.3
2022-09-26T11:47:50.197Z,1.7
2022-09-26T11:48:58.598Z,1.7
2022-09-26T11:50:07.018Z,1.7
2022-09-26T11:51:15.656Z,2.2
2022-09-26T11:52:24.059Z,2.2
2022-09-26T11:53:32.447Z,2.2
2022-09-26T11:54:41.066Z,2
2022-09-26T11:55:49.488Z,2
2022-09-26T11:56:57.880Z,2
2022-09-26T11:58:06.493Z,2.3
2022-09-26T11:59:14.922Z,2.3
2022-09-26T12:00:23.325Z,2.3
2022-09-26T12:01:31.961Z,2.3
2022-09-26T12:02:40.451Z,2.3
2022-09-26T12:03:48.847Z,2.3
2022-09-26T12:04:57.425Z,2.5
2022-09-26T12:06:06.452Z,2.5
2022-09-26T12:07:14.881Z,2.5
2022-09-26T12:08:23.486Z,2.4
2022-09-26T12:09:31.922Z,2.4
2022-09-26T12:10:40.322Z,2.4
2022-09-26T12:11:48.980Z,2.7
2022-09-26T12:12:57.362Z,2.7
2022-09-26T12:14:05.769Z,2.7
2022-09-26T12:15:14.371Z,2.7
2022-09-26T12:16:22.870Z,2.7
2022-09-26T12:17:31.245Z,2.7
2022-09-26T12:18:39.863Z,2.7
2022-09-26T12:19:48.305Z,2.7
2022-09-26T12:20:56.690Z,2.7
2022-09-26T12:22:05.305Z,2.9
2022-09-26T12:23:13.705Z,2.9
2022-09-26T12:24:22.105Z,2.9
2022-09-26T12:25:30.756Z,2.6
2022-09-26T12:26:39.141Z,2.6
2022-09-26T12:27:47.532Z,2.6
2022-09-26T12:28:56.190Z,2.3
2022-09-26T12:30:04.626Z,2.3
2022-09-26T12:31:16.045Z,2.3
2022-09-26T12:32:21.653Z,2.6
2022-09-26T12:33:30.058Z,2.6
2022-09-26T12:34:38.507Z,2.6
2022-09-26T12:35:47.140Z,2.2
2022-09-26T12:36:55.579Z,2.2
2022-09-26T12:38:03.959Z,2.2
2022-09-26T12:39:12.652Z,2.8
2022-09-26T12:40:21.067Z,2.8
2022-09-26T12:41:29.411Z,2.8
2022-09-26T12:42:38.041Z,2.4
2022-09-26T12:43:46.447Z,2.4
2022-09-26T12:44:54.853Z,2.4
2022-09-26T12:46:03.551Z,2.6
2022-09-26T12:47:11.917Z,2.6
2022-09-26T12:48:20.291Z,2.6
2022-09-26T12:49:28.903Z,3
2022-09-26T12:50:37.346Z,3
2022-09-26T12:51:45.761Z,3
2022-09-26T12:52:54.398Z,2.7
2022-09-26T12:54:02.851Z,2.7
2022-09-26T12:55:11.268Z,2.7
2022-09-26T12:56:19.882Z,2.7
2022-09-26T12:57:28.294Z,2.7
2022-09-26T12:58:36.691Z,2.7
2022-09-26T12:59:45.303Z,2.4
2022-09-26T13:00:53.718Z,2.4
2022-09-26T13:02:02.197Z,2.4
2022-09-26T13:03:10.874Z,2.7
2022-09-26T13:04:19.226Z,2.7
2022-09-26T13:05:27.713Z,2.7
2022-09-26T13:06:36.279Z,2.9
2022-09-26T13:07:44.704Z,2.9
2022-09-26T13:08:53.136Z,2.9
2022-09-26T13:10:01.769Z,2.6
2022-09-26T13:11:10.196Z,2.6
2022-09-26T13:12:18.613Z,2.6
2022-09-26T13:13:27.252Z,2.5
2022-09-26T13:14:35.663Z,2.5
2022-09-26T13:15:44.116Z,2.5
2022-09-26T13:16:52.688Z,2.7
2022-09-26T13:18:01.127Z,2.7
2022-09-26T13:19:09.669Z,2.7
2022-09-26T13:20:18.176Z,3.5
2022-09-26T13:21:26.627Z,3.5
2022-09-26T13:22:35.019Z,3.5
2022-09-26T13:23:43.647Z,2.8
2022-09-26T13:24:52.152Z,2.8
2022-09-26T13:26:00.539Z,2.8
2022-09-26T13:27:09.863Z,2.8
2022-09-26T13:28:18.248Z,2.8
2022-09-26T13:29:27.011Z,2.8
2022-09-26T13:30:35.306Z,2.6
2022-09-26T13:31:43.794Z,2.6
2022-09-26T13:32:52.154Z,2.6
2022-09-26T13:34:00.840Z,2.5
2022-09-26T13:35:09.232Z,2.5
2022-09-26T13:36:17.663Z,2.5
2022-09-26T13:37:26.311Z,3
2022-09-26T13:38:34.741Z,3
2022-09-26T13:39:43.209Z,3
2022-09-26T13:40:51.872Z,2.4
2022-09-26T13:42:00.208Z,2.4
2022-09-26T13:43:08.719Z,2.4
2022-09-26T13:44:17.306Z,2.5
2022-09-26T13:45:25.759Z,2.5
2022-09-26T13:46:34.236Z,2.5
2022-09-26T13:47:42.786Z,2.1
2022-09-26T13:48:51.253Z,2.1
2022-09-26T13:49:59.644Z,2.1
2022-09-26T13:51:08.285Z,3
2022-09-26T13:52:16.688Z,3
2022-09-26T13:53:25.124Z,3
2022-09-26T13:54:33.763Z,2
2022-09-26T13:55:42.184Z,2
2022-09-26T13:56:50.602Z,2
2022-09-26T13:57:59.221Z,2.2
2022-09-26T13:59:07.687Z,2.2
2022-09-26T14:00:16.077Z,2.2
2022-09-26T14:01:24.724Z,1.4
2022-09-26T14:02:33.167Z,1.4
2022-09-26T14:03:41.571Z,1.4
2022-09-26T14:04:50.187Z,2
2022-09-26T14:05:58.609Z,2
2022-09-26T14:07:07.052Z,2
2022-09-26T14:08:15.682Z,1.9
2022-09-26T14:09:24.127Z,1.9
2022-09-26T14:10:32.531Z,1.9
2022-09-26T14:11:41.141Z,1.4
2022-09-26T14:12:49.562Z,1.4
2022-09-26T14:13:57.995Z,1.4
2022-09-26T14:15:06.638Z,1.6
2022-09-26T14:16:15.105Z,1.6
2022-09-26T14:17:23.481Z,1.6
2022-09-26T14:18:32.100Z,2.1
2022-09-26T14:19:40.518Z,2.1
2022-09-26T14:20:48.905Z,2.1
2022-09-26T14:21:57.515Z,1.7
2022-09-26T14:23:05.944Z,1.7
2022-09-26T14:24:14.491Z,1.7
2022-09-26T14:25:23.020Z,1.8
2022-09-26T14:26:31.444Z,1.8
2022-09-26T14:27:39.868Z,1.8
2022-09-26T14:28:48.537Z,1.8
2022-09-26T14:29:56.959Z,1.8
2022-09-26T15:03:20.097Z,0
2022-09-26T15:04:28.352Z,0
2022-09-26T15:05:36.881Z,0
2022-09-26T15:06:45.467Z,1.2
2022-09-26T15:07:53.879Z,1.2
2022-09-26T15:09:02.279Z,1.2
2022-09-26T15:10:10.892Z,1.4
2022-09-26T15:11:19.318Z,1.4
2022-09-26T15:12:27.914Z,1.4
2022-09-26T15:13:36.501Z,4.3
2022-09-26T15:14:44.929Z,4.3
2022-09-26T15:15:53.355Z,4.3
2022-09-26T15:17:02.204Z,2.2
2022-09-26T15:18:10.624Z,2.2
2022-09-26T15:19:19.045Z,2.2
2022-09-26T15:20:27.637Z,2.5
2022-09-26T15:21:36.054Z,2.5
2022-09-26T15:22:44.443Z,2.5
2022-09-26T15:23:53.091Z,67.099998
2022-09-26T15:25:01.491Z,67.099998
2022-09-26T15:26:09.862Z,67.099998
2022-09-26T15:27:18.474Z,9.2
2022-09-26T15:28:26.971Z,9.2
2022-09-26T15:29:35.335Z,9.2
2022-09-26T15:30:43.947Z,56.299999
2022-09-26T15:31:52.355Z,56.299999
2022-09-26T15:33:00.743Z,56.299999
2022-09-26T15:34:09.477Z,1.3
2022-09-26T15:35:17.818Z,1.3
2022-09-26T15:36:26.268Z,1.3
2022-09-26T15:37:34.838Z,1.8
2022-09-26T15:38:46.965Z,1.8
2022-09-26T15:39:51.700Z,1.8
2022-09-26T15:41:00.471Z,1.2
2022-09-26T15:42:08.704Z,1.2
2022-09-26T15:43:17.140Z,1.2
2022-09-26T15:44:25.767Z,2.4
2022-09-26T15:45:34.187Z,2.4
2022-09-26T15:46:42.685Z,2.4
2022-09-26T15:47:51.238Z,5.1
2022-09-26T15:48:59.675Z,5.1
2022-09-26T15:50:08.133Z,5.1
2022-09-26T15:51:16.739Z,7.6
2022-09-26T15:52:25.153Z,7.6
2022-09-26T15:53:33.556Z,7.6
2022-09-26T15:54:42.203Z,12.6
2022-09-26T15:55:50.637Z,12.6
2022-09-26T15:56:59.072Z,12.6
2022-09-26T15:58:07.691Z,32
2022-09-26T15:59:16.105Z,32
2022-09-26T16:00:24.506Z,32
2022-09-26T16:01:33.181Z,24.299999
2022-09-26T16:02:41.581Z,24.299999
2022-09-26T16:03:49.966Z,24.299999
2022-09-26T16:04:58.586Z,7
2022-09-26T16:06:06.990Z,7
2022-09-26T16:07:15.464Z,7
2022-09-26T16:08:24.029Z,18.4
2022-09-26T16:09:32.480Z,18.4
2022-09-26T16:10:40.884Z,18.4
2022-09-26T16:11:49.523Z,5.6
2022-09-26T16:12:57.923Z,5.6
2022-09-26T16:14:06.420Z,5.6
2022-09-26T16:15:15.050Z,27.799999
2022-09-26T16:16:23.426Z,27.799999
2022-09-26T16:17:31.801Z,27.799999
2022-09-26T16:18:40.582Z,11.3
2022-09-26T16:19:48.869Z,11.3
2022-09-26T16:20:57.290Z,11.3